^^
Meteo Knjazevac Station Historical Data
Daily Summary for September 8, 2021 Units:  English    Metric   Both
Daily Weekly Monthly Yearly Custom
  High: Low: Average:
Temperature: 90 °F 62.2 °F 70.1 °F
Dew Point: 75.7 °F 59.6 °F 65.3 °F
Humidity: 94% 63% 85%
Wind Speed: 6mph 0mph 1.2mph
Wind Gust: 9mph - -
Wind- - South
Pressure: 30.20 in 30.12 in -
Precipitation: 0.00 in    
Historical Graphs
 
 
Tabular Data for September 8, 2021
Time Temperature Dew Point Pressure Wind Wind Speed Wind Gust Humidity Rainfall Rate (Hourly) solar Conditions
00:00 69.8 °F 64.4 °F 30.12 in West 1 mph 2 mph 83% 0.00 in 0 W/m2
00:10 69.3 °F 63.9 °F 30.12 in West 1 mph 3 mph 83% 0.00 in 0 W/m2
00:20 68.7 °F 63.7 °F 30.12 in Calm   1 mph 84% 0.00 in 0 W/m2
00:30 68.5 °F 63.5 °F 30.12 in Calm   1 mph 84% 0.00 in 0 W/m2
00:40 68.2 °F 63.5 °F 30.13 in WSW 1 mph 2 mph 85% 0.00 in 0 W/m2
00:50 67.8 °F 63.1 °F 30.13 in Calm   2 mph 85% 0.00 in 0 W/m2
01:00 67.8 °F 63.1 °F 30.12 in Calm   1 mph 85% 0.00 in 0 W/m2
01:10 67.3 °F 62.6 °F 30.13 in Calm   2 mph 85% 0.00 in 0 W/m2
01:20 66.9 °F 62.6 °F 30.13 in Calm   2 mph 86% 0.00 in 0 W/m2
01:30 66.7 °F 62.4 °F 30.13 in WNW 1 mph 2 mph 86% 0.00 in 0 W/m2
01:40 66.2 °F 61.9 °F 30.13 in West 1 mph 3 mph 86% 0.00 in 0 W/m2
01:50 66 °F 62.4 °F 30.13 in West 1 mph 4 mph 88% 0.00 in 0 W/m2
02:00 65.6 °F 62 °F 30.13 in WSW 2 mph 3 mph 88% 0.00 in 0 W/m2
02:10 65.3 °F 61.9 °F 30.14 in West 2 mph 3 mph 89% 0.00 in 0 W/m2
02:20 65.1 °F 61.8 °F 30.14 in WSW 2 mph 3 mph 89% 0.00 in 0 W/m2
02:30 64.9 °F 61.6 °F 30.14 in West 2 mph 4 mph 89% 0.00 in 0 W/m2
02:40 64.9 °F 61.6 °F 30.14 in West 2 mph 4 mph 89% 0.00 in 0 W/m2
02:50 64.8 °F 61.5 °F 30.14 in West 2 mph 3 mph 89% 0.00 in 0 W/m2
03:00 64.7 °F 61.4 °F 30.14 in WNW 1 mph 2 mph 89% 0.00 in 0 W/m2
03:10 64.6 °F 61.3 °F 30.14 in Calm   1 mph 89% 0.00 in 0 W/m2
03:20 64.6 °F 61.3 °F 30.14 in Calm     89% 0.00 in 0 W/m2
03:30 64 °F 61 °F 30.14 in Calm   2 mph 90% 0.00 in 0 W/m2
03:40 64 °F 61 °F 30.14 in Calm     90% 0.00 in 0 W/m2
03:50 64 °F 61 °F 30.14 in Calm   2 mph 90% 0.00 in 0 W/m2
04:00 64 °F 61.4 °F 30.14 in Calm   2 mph 91% 0.00 in 0 W/m2
04:10 63.7 °F 60.7 °F 30.15 in Calm   1 mph 90% 0.00 in 0 W/m2
04:20 63.5 °F 60.5 °F 30.15 in Calm   1 mph 90% 0.00 in 0 W/m2
04:30 63.3 °F 60.6 °F 30.15 in SW 1 mph 2 mph 91% 0.00 in 0 W/m2
04:40 63 °F 60.3 °F 30.15 in Calm   2 mph 91% 0.00 in 0 W/m2
04:50 63 °F 60.3 °F 30.16 in NNW 1 mph 2 mph 91% 0.00 in 0 W/m2
05:00 62.8 °F 60.1 °F 30.16 in Calm   2 mph 91% 0.00 in 4 W/m2
05:10 62.4 °F 59.8 °F 30.16 in Calm   2 mph 91% 0.00 in 9 W/m2
05:20 62.2 °F 59.6 °F 30.17 in Calm   1 mph 91% 0.00 in 16 W/m2
05:30 62.2 °F 60.2 °F 30.17 in Calm   2 mph 93% 0.00 in 25 W/m2
05:40 62.4 °F 60.4 °F 30.17 in Calm     93% 0.00 in 36 W/m2
05:50 62.4 °F 60.4 °F 30.17 in Calm   1 mph 93% 0.00 in 47 W/m2
06:00 62.4 °F 60.4 °F 30.18 in Calm   2 mph 93% 0.00 in 65 W/m2
06:10 62.4 °F 60.7 °F 30.18 in WNW 1 mph 2 mph 94% 0.00 in 95 W/m2
06:20 62.6 °F 60.8 °F 30.19 in Calm   1 mph 94% 0.00 in 118 W/m2
06:30 62.8 °F 61 °F 30.19 in NW 1 mph 2 mph 94% 0.00 in 140 W/m2
06:40 63 °F 61.2 °F 30.19 in Calm   2 mph 94% 0.00 in 161 W/m2
06:50 63.3 °F 61.6 °F 30.19 in Calm   1 mph 94% 0.00 in 191 W/m2
07:00 63.7 °F 61.9 °F 30.19 in Calm     94% 0.00 in 220 W/m2
07:10 64.1 °F 62.3 °F 30.19 in Calm   2 mph 94% 0.00 in 255 W/m2
07:20 64.6 °F 62.9 °F 30.19 in West 2 mph 4 mph 94% 0.00 in 287 W/m2
07:30 65.3 °F 63.6 °F 30.19 in NW 1 mph 3 mph 94% 0.00 in 323 W/m2
07:40 66 °F 64.2 °F 30.19 in West 1 mph 3 mph 94% 0.00 in 364 W/m2
07:50 66.8 °F 64.7 °F 30.20 in WSW 1 mph 3 mph 93% 0.00 in 396 W/m2
08:00 67.5 °F 65.4 °F 30.20 in NW 1 mph 2 mph 93% 0.00 in 430 W/m2
08:10 68.4 °F 65.7 °F 30.20 in South 2 mph 5 mph 91% 0.00 in 460 W/m2
08:20 69.5 °F 66.7 °F 30.19 in SW 1 mph 4 mph 91% 0.00 in 505 W/m2
08:30 70 °F 67 °F 30.19 in NE 2 mph 5 mph 90% 0.00 in 537 W/m2
08:40 70.9 °F 67.8 °F 30.19 in ENE 3 mph 7 mph 90% 0.00 in 576 W/m2
08:50 72 °F 68.6 °F 30.19 in NE 2 mph 8 mph 89% 0.00 in 611 W/m2
09:00 73.4 °F 69 °F 30.19 in NNE 1 mph 6 mph 86% 0.00 in 644 W/m2
09:10 75.1 °F 70.2 °F 30.19 in NNW 1 mph 5 mph 85% 0.00 in 674 W/m2
09:20 76.6 °F 70.4 °F 30.19 in NE 3 mph 7 mph 81% 0.00 in 708 W/m2
09:30 77.6 °F 70.9 °F 30.19 in Calm   7 mph 80% 0.00 in 733 W/m2
09:40 78.6 °F 71.6 °F 30.19 in SSE 3 mph 6 mph 79% 0.00 in 757 W/m2
09:50 79.4 °F 72.3 °F 30.19 in SE 2 mph 5 mph 79% 0.00 in 780 W/m2
10:00 80.3 °F 72.4 °F 30.19 in Calm   5 mph 77% 0.00 in 801 W/m2
10:10 80.8 °F 72.5 °F 30.19 in SW 1 mph 6 mph 76% 0.00 in 822 W/m2
10:20 81.9 °F 72.8 °F 30.18 in Calm   6 mph 74% 0.00 in 841 W/m2
10:30 82.8 °F 73.2 °F 30.18 in NNE 3 mph 7 mph 73% 0.00 in 860 W/m2
10:40 83.7 °F 73.7 °F 30.18 in NNE 3 mph 9 mph 72% 0.00 in 876 W/m2
10:50 84.8 °F 73.9 °F 30.18 in NE 1 mph 6 mph 70% 0.00 in 553 W/m2
11:00 85.5 °F 74.6 °F 30.17 in NNE 5 mph 6 mph 70% 0.00 in 906 W/m2
11:10 86.1 °F 74.3 °F 30.17 in NNE 3 mph 7 mph 68% 0.00 in 919 W/m2
11:20 86.8 °F 74.9 °F 30.17 in North 2 mph 7 mph 68% 0.00 in 267 W/m2
11:30 87.4 °F 74.7 °F 30.17 in NNE 6 mph 8 mph 66% 0.00 in 941 W/m2
11:40 87.9 °F 75.5 °F 30.17 in North 2 mph 8 mph 67% 0.00 in 950 W/m2
11:50 88.7 °F 75.5 °F 30.17 in NNE 3 mph 6 mph 65% 0.00 in 957 W/m2
12:00 89.1 °F 75.3 °F 30.16 in NE 6 mph 7 mph 64% 0.00 in 962 W/m2
12:10 90 °F 75.7 °F 30.16 in NNE 3 mph 8 mph 63% 0.00 in 967 W/m2
Knjazevac, Serbia
Compliments of Weather Underground - 2 mb